createdAt,value
2022-11-18T00:01:32.147Z,99.44
2022-11-18T00:04:01.272Z,99.69
2022-11-18T00:06:30.329Z,99.93
2022-11-18T00:09:01.474Z,99.98
2022-11-18T00:11:55.657Z,100.00
2022-11-18T00:14:27.655Z,99.98
2022-11-18T00:17:00.239Z,99.97
2022-11-18T00:19:32.081Z,99.98
2022-11-18T00:22:01.423Z,99.98
2022-11-18T00:24:38.831Z,99.99
2022-11-18T00:27:07.194Z,100.00
2022-11-18T00:29:35.542Z,100.00
2022-11-18T00:32:03.636Z,100.00
2022-11-18T00:34:31.856Z,100.00
2022-11-18T00:37:01.223Z,100.00
2022-11-18T00:39:35.290Z,100.00
2022-11-18T00:42:22.256Z,100.00
2022-11-18T00:44:50.268Z,100.00
2022-11-18T00:47:18.370Z,100.00
2022-11-18T00:49:46.440Z,100.00
2022-11-18T00:52:14.604Z,100.00
2022-11-18T00:54:42.915Z,100.00
2022-11-18T00:57:11.324Z,100.00
2022-11-18T00:59:39.484Z,100.00
2022-11-18T01:02:07.544Z,100.00
2022-11-18T01:04:35.677Z,100.00
2022-11-18T01:07:04.156Z,100.00
2022-11-18T01:09:33.275Z,100.00
2022-11-18T01:12:20.409Z,100.00
2022-11-18T01:14:48.723Z,100.00
2022-11-18T01:17:16.676Z,100.00
2022-11-18T01:19:44.954Z,100.00
2022-11-18T01:22:13.096Z,100.00
2022-11-18T01:24:41.568Z,100.00
2022-11-18T01:27:09.834Z,100.00
2022-11-18T01:29:37.998Z,100.00
2022-11-18T01:32:23.984Z,100.00
2022-11-18T01:34:53.110Z,100.00
2022-11-18T01:37:21.537Z,100.00
2022-11-18T01:39:49.954Z,100.00
2022-11-18T01:42:18.532Z,100.00
2022-11-18T01:45:14.506Z,100.00
2022-11-18T01:47:50.560Z,100.00
2022-11-18T01:50:23.598Z,100.00
2022-11-18T01:52:54.312Z,100.00
2022-11-18T01:55:27.601Z,100.00
2022-11-18T01:58:11.310Z,100.00
2022-11-18T02:00:40.358Z,100.00
2022-11-18T02:03:11.125Z,100.00
2022-11-18T02:05:41.206Z,100.00
2022-11-18T02:08:09.858Z,100.00
2022-11-18T02:10:38.104Z,100.00
2022-11-18T02:13:07.898Z,100.00
2022-11-18T02:15:49.377Z,100.00
2022-11-18T02:18:33.954Z,100.00
2022-11-18T02:21:38.484Z,100.00
2022-11-18T02:24:38.646Z,100.00
2022-11-18T02:27:27.636Z,100.00
2022-11-18T02:30:02.681Z,100.00
2022-11-18T02:32:42.732Z,100.00
2022-11-18T02:35:13.473Z,100.00
2022-11-18T02:37:58.526Z,100.00
2022-11-18T02:40:31.944Z,100.00
2022-11-18T02:43:06.653Z,100.00
2022-11-18T02:45:36.664Z,100.00
2022-11-18T02:48:13.042Z,100.00
2022-11-18T02:50:46.476Z,100.00
2022-11-18T02:53:19.430Z,100.00
2022-11-18T02:55:49.814Z,100.00
2022-11-18T02:58:20.742Z,100.00
2022-11-18T03:00:59.608Z,100.00
2022-11-18T03:03:35.951Z,100.00
2022-11-18T03:06:26.089Z,100.00
2022-11-18T03:09:32.001Z,100.00
2022-11-18T03:12:22.039Z,100.00
2022-11-18T03:15:27.201Z,100.00
2022-11-18T03:18:16.163Z,100.00
2022-11-18T03:20:55.750Z,100.00
2022-11-18T03:23:35.923Z,100.00
2022-11-18T03:26:26.086Z,100.00
2022-11-18T03:29:05.299Z,100.00
2022-11-18T03:31:49.064Z,100.00
2022-11-18T03:34:27.879Z,100.00
2022-11-18T03:37:06.387Z,100.00
2022-11-18T03:39:46.414Z,100.00
2022-11-18T03:42:29.418Z,100.00
2022-11-18T03:45:11.125Z,100.00
2022-11-18T03:47:47.930Z,100.00
2022-11-18T03:50:29.877Z,100.00
2022-11-18T03:53:00.041Z,100.00
2022-11-18T03:55:39.587Z,100.00
2022-11-18T03:58:24.652Z,100.00
2022-11-18T04:00:59.465Z,100.00
2022-11-18T04:03:27.881Z,100.00
2022-11-18T04:06:05.305Z,100.00
2022-11-18T04:08:40.561Z,100.00
2022-11-18T04:11:38.135Z,100.00
2022-11-18T04:14:08.752Z,100.00
2022-11-18T04:16:47.833Z,100.00
2022-11-18T04:19:15.948Z,100.00
2022-11-18T04:21:44.092Z,100.00
2022-11-18T04:24:12.320Z,100.00
2022-11-18T04:26:40.355Z,100.00
2022-11-18T04:29:08.843Z,100.00
2022-11-18T04:31:36.799Z,100.00
2022-11-18T04:34:04.964Z,100.00
2022-11-18T04:36:33.184Z,99.99
2022-11-18T04:39:01.491Z,99.93
2022-11-18T04:41:48.024Z,99.93
2022-11-18T04:44:16.406Z,99.99
2022-11-18T04:46:45.874Z,100.00
2022-11-18T04:49:15.849Z,99.98
2022-11-18T04:51:45.289Z,99.98
2022-11-18T04:54:14.781Z,100.00
2022-11-18T04:56:48.800Z,100.00
2022-11-18T04:59:25.383Z,100.00
2022-11-18T05:01:54.490Z,100.00
2022-11-18T05:04:28.592Z,100.00
2022-11-18T05:06:56.901Z,100.00
2022-11-18T05:09:31.559Z,100.00
2022-11-18T05:12:20.046Z,100.00
2022-11-18T05:14:50.581Z,100.00
2022-11-18T05:17:19.910Z,100.00
2022-11-18T05:19:48.014Z,100.00
2022-11-18T05:22:16.834Z,100.00
2022-11-18T05:24:45.020Z,100.00
2022-11-18T05:27:14.673Z,100.00
2022-11-18T05:29:53.668Z,100.00
2022-11-18T05:32:21.903Z,100.00
2022-11-18T05:34:50.419Z,100.00
2022-11-18T05:37:18.655Z,100.00
2022-11-18T05:39:46.990Z,100.00
2022-11-18T05:42:33.730Z,100.00
2022-11-18T05:45:01.732Z,100.00
2022-11-18T05:47:50.004Z,100.00
2022-11-18T05:50:21.320Z,100.00
2022-11-18T05:52:50.049Z,100.00
2022-11-18T05:55:20.857Z,100.00
2022-11-18T05:57:49.746Z,100.00
2022-11-18T06:00:18.485Z,100.00
2022-11-18T06:02:49.177Z,100.00
2022-11-18T06:05:20.048Z,100.00
2022-11-18T06:07:48.223Z,100.00
2022-11-18T06:10:34.116Z,100.00
2022-11-18T06:13:08.292Z,100.00
2022-11-18T06:15:43.399Z,100.00
2022-11-18T06:18:21.673Z,100.00
2022-11-18T06:20:53.544Z,100.00
2022-11-18T06:23:22.336Z,100.00
2022-11-18T06:25:50.588Z,100.00
2022-11-18T06:28:20.597Z,100.00
2022-11-18T06:30:52.922Z,100.00
2022-11-18T06:33:24.347Z,100.00
2022-11-18T06:35:52.622Z,100.00
2022-11-18T06:38:24.296Z,100.00
2022-11-18T06:40:52.793Z,100.00
2022-11-18T06:43:39.045Z,100.00
2022-11-18T06:46:32.194Z,100.00
2022-11-18T06:49:00.778Z,100.00
2022-11-18T06:51:30.005Z,100.00
2022-11-18T06:53:58.469Z,100.00
2022-11-18T06:56:26.574Z,100.00
2022-11-18T06:58:57.944Z,100.00
2022-11-18T07:01:28.346Z,100.00
2022-11-18T07:03:59.778Z,100.00
2022-11-18T07:06:31.093Z,100.00
2022-11-18T07:09:05.733Z,100.00
2022-11-18T07:11:34.429Z,100.00
2022-11-18T07:14:02.834Z,100.00
2022-11-18T07:16:31.228Z,100.00
2022-11-18T07:18:59.469Z,100.00
2022-11-18T07:21:29.918Z,100.00
2022-11-18T07:23:58.037Z,100.00
2022-11-18T07:26:26.396Z,100.00
2022-11-18T07:28:54.831Z,100.00
2022-11-18T07:31:23.042Z,100.00
2022-11-18T07:33:55.076Z,100.00
2022-11-18T07:36:35.188Z,100.00
2022-11-18T07:39:06.763Z,100.00
2022-11-18T07:41:36.114Z,99.96
2022-11-18T07:44:05.029Z,99.71
2022-11-18T07:46:37.731Z,98.80
2022-11-18T07:49:07.067Z,98.32
2022-11-18T07:51:38.301Z,98.47
2022-11-18T07:54:12.961Z,97.84
2022-11-18T07:56:41.231Z,97.42
2022-11-18T07:59:11.855Z,97.22
2022-11-18T08:01:40.128Z,97.52
2022-11-18T08:04:10.930Z,97.33
2022-11-18T08:06:40.042Z,97.30
2022-11-18T08:09:09.074Z,97.48
2022-11-18T08:11:37.898Z,97.06
2022-11-18T08:14:06.518Z,96.98
2022-11-18T08:16:35.157Z,96.81
2022-11-18T08:19:03.334Z,96.08
2022-11-18T08:21:31.614Z,95.84
2022-11-18T08:23:59.683Z,95.22
2022-11-18T08:26:28.018Z,93.82
2022-11-18T08:28:57.398Z,93.11
2022-11-18T08:31:27.904Z,92.11
2022-11-18T08:34:04.734Z,91.87
2022-11-18T08:36:35.364Z,91.61
2022-11-18T08:39:06.483Z,90.90
2022-11-18T08:41:38.987Z,90.82
2022-11-18T08:44:13.339Z,91.04
2022-11-18T08:46:43.280Z,90.58
2022-11-18T08:49:12.174Z,90.19
2022-11-18T08:51:40.535Z,90.18
2022-11-18T08:54:08.886Z,89.98
2022-11-18T08:56:37.534Z,90.62
2022-11-18T08:59:06.831Z,89.97
2022-11-18T09:01:37.961Z,89.97
2022-11-18T09:04:07.256Z,89.97
2022-11-18T09:06:39.853Z,89.14
2022-11-18T09:09:11.296Z,88.95
2022-11-18T09:11:40.627Z,88.86
2022-11-18T09:17:00.213Z,89.10
2022-11-18T09:22:16.668Z,88.41
2022-11-18T09:24:45.878Z,87.78
2022-11-18T09:27:17.265Z,87.97
2022-11-18T09:29:45.943Z,87.87
2022-11-18T09:32:14.060Z,88.05
2022-11-18T09:34:42.256Z,88.01
2022-11-18T09:37:10.534Z,87.77
2022-11-18T09:39:38.974Z,87.95
2022-11-18T09:43:02.809Z,87.45
2022-11-18T09:45:56.861Z,87.49
2022-11-18T09:49:02.168Z,86.77
2022-11-18T09:51:38.348Z,86.40
2022-11-18T09:54:20.609Z,86.34
2022-11-18T09:56:51.959Z,86.07
2022-11-18T09:59:22.849Z,86.38
2022-11-18T10:02:00.346Z,86.31
2022-11-18T10:04:29.511Z,85.77
2022-11-18T10:06:58.052Z,85.69
2022-11-18T10:09:30.694Z,85.21
2022-11-18T10:12:09.979Z,84.76
2022-11-18T10:15:12.666Z,84.15
2022-11-18T10:17:41.548Z,84.15
2022-11-18T10:20:45.359Z,84.89
2022-11-18T10:23:19.593Z,84.70
2022-11-18T10:25:48.615Z,84.02
2022-11-18T10:28:47.192Z,84.39
2022-11-18T10:31:15.610Z,83.57
2022-11-18T10:33:44.112Z,83.38
2022-11-18T10:36:27.607Z,83.90
2022-11-18T10:39:25.616Z,84.41
2022-11-18T10:41:59.837Z,84.92
2022-11-18T10:44:35.994Z,84.91
2022-11-18T10:47:55.479Z,84.56
2022-11-18T10:50:48.245Z,84.01
2022-11-18T10:53:37.821Z,84.09
2022-11-18T10:56:09.130Z,84.17
2022-11-18T10:58:50.382Z,84.51
2022-11-18T11:01:24.720Z,84.04
2022-11-18T11:04:12.401Z,84.30
2022-11-18T11:06:40.929Z,84.45
2022-11-18T11:09:25.244Z,84.68
2022-11-18T11:12:12.084Z,85.14
2022-11-18T11:14:57.654Z,85.23
2022-11-18T11:17:39.982Z,85.10
2022-11-18T11:20:23.175Z,85.20
2022-11-18T11:22:51.062Z,85.26
2022-11-18T11:25:26.990Z,85.55
2022-11-18T11:28:16.913Z,85.38
2022-11-18T11:31:18.668Z,85.97
2022-11-18T11:34:04.927Z,86.28
2022-11-18T11:36:58.387Z,86.39
2022-11-18T11:39:48.768Z,86.21
2022-11-18T11:42:35.817Z,86.39
2022-11-18T11:45:25.254Z,86.87
2022-11-18T11:48:24.020Z,87.10
2022-11-18T11:51:04.026Z,87.45
2022-11-18T11:54:15.559Z,87.72
2022-11-18T11:56:59.680Z,87.98
2022-11-18T11:59:36.998Z,88.32
2022-11-18T12:02:42.503Z,88.79
2022-11-18T12:05:10.990Z,88.70
2022-11-18T12:07:52.532Z,88.95
2022-11-18T12:10:28.083Z,89.09
2022-11-18T12:13:24.452Z,89.02
2022-11-18T12:16:11.056Z,89.47
2022-11-18T12:18:48.154Z,89.67
2022-11-18T12:21:41.147Z,89.92
2022-11-18T12:24:18.261Z,90.20
2022-11-18T12:26:52.157Z,90.42
2022-11-18T12:29:24.892Z,90.52
2022-11-18T12:31:59.697Z,90.83
2022-11-18T12:34:41.401Z,90.96
2022-11-18T12:37:27.245Z,91.18
2022-11-18T12:39:55.212Z,91.62
2022-11-18T12:43:05.825Z,91.76
2022-11-18T12:45:47.835Z,91.96
2022-11-18T12:48:29.272Z,92.08
2022-11-18T12:50:59.873Z,92.42
2022-11-18T12:53:28.243Z,92.48
2022-11-18T12:55:57.965Z,92.62
2022-11-18T12:58:27.239Z,92.87
2022-11-18T13:01:08.066Z,92.93
2022-11-18T13:03:36.812Z,93.10
2022-11-18T13:06:17.659Z,93.28
2022-11-18T13:08:51.735Z,93.65
2022-11-18T13:11:39.713Z,93.87
2022-11-18T13:14:42.608Z,93.99
2022-11-18T13:17:57.369Z,94.33
2022-11-18T13:20:35.698Z,94.54
2022-11-18T13:23:22.102Z,94.52
2022-11-18T13:25:51.131Z,94.63
2022-11-18T13:28:27.611Z,94.79
2022-11-18T13:31:30.112Z,95.00
2022-11-18T13:34:06.067Z,95.17
2022-11-18T13:36:34.337Z,95.34
2022-11-18T13:39:05.913Z,95.40
2022-11-18T13:41:35.653Z,95.54
2022-11-18T13:44:22.676Z,95.64
2022-11-18T13:47:18.907Z,95.87
2022-11-18T13:49:53.699Z,96.21
2022-11-18T13:52:39.729Z,96.46
2022-11-18T13:55:14.843Z,96.60
2022-11-18T13:57:49.483Z,96.95
2022-11-18T14:00:26.517Z,97.17
2022-11-18T14:02:59.757Z,97.62
2022-11-18T14:05:28.349Z,97.89
2022-11-18T14:08:09.577Z,98.05
2022-11-18T14:10:43.114Z,98.20
2022-11-18T14:13:31.239Z,99.02
2022-11-18T14:16:24.088Z,99.12
2022-11-18T14:18:52.207Z,99.11
2022-11-18T14:21:35.494Z,99.28
2022-11-18T14:24:04.322Z,99.45
2022-11-18T14:26:38.291Z,99.50
2022-11-18T14:29:22.940Z,99.78
2022-11-18T14:32:12.729Z,99.89
2022-11-18T14:34:40.980Z,99.94
2022-11-18T14:37:14.122Z,99.95
2022-11-18T14:39:55.153Z,99.99
2022-11-18T14:42:24.325Z,100.00
2022-11-18T14:44:52.458Z,100.00
2022-11-18T14:47:32.762Z,100.00
2022-11-18T14:50:00.804Z,100.00
2022-11-18T14:52:31.229Z,100.00
2022-11-18T14:54:59.324Z,100.00
2022-11-18T14:57:27.315Z,100.00
2022-11-18T14:59:55.394Z,100.00
2022-11-18T15:02:24.795Z,100.00
2022-11-18T15:04:56.370Z,100.00
2022-11-18T15:07:27.672Z,100.00
2022-11-18T15:09:55.707Z,100.00
2022-11-18T15:12:24.081Z,100.00
2022-11-18T15:14:52.104Z,100.00
2022-11-18T15:17:20.500Z,100.00
2022-11-18T15:19:49.503Z,100.00
2022-11-18T15:22:17.623Z,100.00
2022-11-18T15:24:45.712Z,100.00
2022-11-18T15:27:13.797Z,100.00
2022-11-18T15:29:42.167Z,100.00
2022-11-18T15:32:10.178Z,100.00
2022-11-18T15:34:38.189Z,100.00
2022-11-18T15:37:06.632Z,100.00
2022-11-18T15:39:34.790Z,100.00
2022-11-18T15:42:03.112Z,100.00
2022-11-18T15:44:31.233Z,100.00
2022-11-18T15:47:00.302Z,100.00
2022-11-18T15:49:28.681Z,100.00
2022-11-18T15:51:57.022Z,100.00
2022-11-18T15:54:25.400Z,100.00
2022-11-18T15:56:53.697Z,100.00
2022-11-18T15:59:21.941Z,100.00
2022-11-18T16:01:50.292Z,100.00
2022-11-18T16:04:19.493Z,100.00
2022-11-18T16:06:48.369Z,100.00
2022-11-18T16:09:18.133Z,100.00
2022-11-18T16:12:06.292Z,100.00
2022-11-18T16:14:38.225Z,100.00
2022-11-18T16:17:09.222Z,100.00
2022-11-18T16:19:37.314Z,100.00
2022-11-18T16:22:05.452Z,100.00
2022-11-18T16:24:34.098Z,100.00
2022-11-18T16:27:04.653Z,100.00
2022-11-18T16:29:33.100Z,100.00
2022-11-18T16:32:01.121Z,100.00
2022-11-18T16:34:29.215Z,100.00
2022-11-18T16:37:00.885Z,100.00
2022-11-18T16:39:29.841Z,100.00
2022-11-18T16:42:07.496Z,100.00
2022-11-18T16:44:37.914Z,100.00
2022-11-18T16:47:13.991Z,100.00
2022-11-18T16:49:44.167Z,100.00
2022-11-18T16:52:12.188Z,100.00
2022-11-18T16:54:45.251Z,100.00
2022-11-18T16:57:14.888Z,100.00
2022-11-18T16:59:43.686Z,100.00
2022-11-18T17:02:13.746Z,100.00
2022-11-18T17:04:42.990Z,100.00
2022-11-18T17:07:11.463Z,100.00
2022-11-18T17:09:39.778Z,100.00
2022-11-18T17:12:08.064Z,100.00
2022-11-18T17:14:38.279Z,100.00
2022-11-18T17:17:08.948Z,100.00
2022-11-18T17:19:37.314Z,100.00
2022-11-18T17:22:05.664Z,100.00
2022-11-18T17:24:33.801Z,100.00
2022-11-18T17:27:01.997Z,100.00
2022-11-18T17:29:30.147Z,100.00
2022-11-18T17:31:58.277Z,100.00
2022-11-18T17:34:26.261Z,100.00
2022-11-18T17:36:54.225Z,100.00
2022-11-18T17:39:22.278Z,100.00
2022-11-18T17:42:10.245Z,100.00
2022-11-18T17:44:38.662Z,100.00
2022-11-18T17:47:07.239Z,100.00
2022-11-18T17:49:42.022Z,100.00
2022-11-18T17:52:10.180Z,100.00
2022-11-18T17:54:38.330Z,100.00
2022-11-18T17:57:06.453Z,100.00
2022-11-18T17:59:34.472Z,100.00
2022-11-18T18:02:02.834Z,100.00
2022-11-18T18:04:31.278Z,100.00
2022-11-18T18:06:59.464Z,100.00
2022-11-18T18:09:30.962Z,100.00
2022-11-18T18:12:00.356Z,100.00
2022-11-18T18:14:28.583Z,100.00
2022-11-18T18:16:56.947Z,100.00
2022-11-18T18:19:25.085Z,100.00
2022-11-18T18:21:53.678Z,100.00
2022-11-18T18:24:22.617Z,100.00
2022-11-18T18:26:51.051Z,100.00
2022-11-18T18:29:19.182Z,100.00
2022-11-18T18:31:47.400Z,100.00
2022-11-18T18:34:15.551Z,100.00
2022-11-18T18:36:44.121Z,100.00
2022-11-18T18:39:12.350Z,100.00
2022-11-18T18:41:40.407Z,100.00
2022-11-18T18:44:11.344Z,100.00
2022-11-18T18:46:41.787Z,100.00
2022-11-18T18:49:14.867Z,100.00
2022-11-18T18:51:45.238Z,100.00
2022-11-18T18:54:16.501Z,100.00
2022-11-18T18:56:45.441Z,100.00
2022-11-18T18:59:13.623Z,100.00
2022-11-18T19:01:41.795Z,100.00
2022-11-18T19:04:13.593Z,100.00
2022-11-18T19:07:01.115Z,100.00
2022-11-18T19:09:29.405Z,100.00
2022-11-18T19:12:16.525Z,100.00
2022-11-18T19:14:44.665Z,100.00
2022-11-18T19:17:13.400Z,100.00
2022-11-18T19:20:01.179Z,100.00
2022-11-18T19:22:33.680Z,100.00
2022-11-18T19:25:02.192Z,100.00
2022-11-18T19:27:30.740Z,100.00
2022-11-18T19:30:00.830Z,100.00
2022-11-18T19:32:31.385Z,100.00
2022-11-18T19:34:59.660Z,100.00
2022-11-18T19:37:27.933Z,100.00
2022-11-18T19:39:56.255Z,100.00
2022-11-18T19:42:25.206Z,100.00
2022-11-18T19:44:53.498Z,100.00
2022-11-18T19:47:21.617Z,100.00
2022-11-18T19:49:49.993Z,100.00
2022-11-18T19:52:18.220Z,100.00
2022-11-18T19:54:50.426Z,100.00
2022-11-18T19:57:22.180Z,100.00
2022-11-18T19:59:50.153Z,100.00
2022-11-18T20:02:18.524Z,100.00
2022-11-18T20:05:06.404Z,100.00
2022-11-18T20:07:34.729Z,100.00
2022-11-18T20:10:03.221Z,100.00
2022-11-18T20:12:31.272Z,100.00
2022-11-18T20:14:59.580Z,100.00
2022-11-18T20:17:27.644Z,100.00
2022-11-18T20:19:55.715Z,100.00
2022-11-18T20:22:23.966Z,100.00
2022-11-18T20:24:54.406Z,100.00
2022-11-18T20:27:22.450Z,100.00
2022-11-18T20:29:50.981Z,100.00
2022-11-18T20:32:19.206Z,100.00
2022-11-18T20:34:47.332Z,100.00
2022-11-18T20:37:17.238Z,100.00
2022-11-18T20:39:45.380Z,100.00
2022-11-18T20:42:32.127Z,100.00
2022-11-18T20:45:00.276Z,100.00
2022-11-18T20:47:28.305Z,100.00
2022-11-18T20:49:57.510Z,100.00
2022-11-18T20:52:25.671Z,100.00
2022-11-18T20:54:53.846Z,100.00
2022-11-18T20:57:22.004Z,100.00
2022-11-18T20:59:50.129Z,100.00
2022-11-18T21:02:18.222Z,100.00
2022-11-18T21:04:46.369Z,100.00
2022-11-18T21:07:14.543Z,100.00
2022-11-18T21:09:43.542Z,100.00
2022-11-18T21:12:11.834Z,100.00
2022-11-18T21:14:39.985Z,100.00
2022-11-18T21:17:08.094Z,100.00
2022-11-18T21:19:36.182Z,100.00
2022-11-18T21:22:04.702Z,100.00
2022-11-18T21:24:35.425Z,100.00
2022-11-18T21:27:04.331Z,100.00
2022-11-18T21:29:33.364Z,100.00
2022-11-18T21:32:01.935Z,100.00
2022-11-18T21:34:30.404Z,100.00
2022-11-18T21:36:58.562Z,100.00
2022-11-18T21:39:27.437Z,100.00
2022-11-18T21:41:57.105Z,100.00
2022-11-18T21:44:28.511Z,100.00
2022-11-18T21:46:57.779Z,100.00
2022-11-18T21:49:25.991Z,100.00
2022-11-18T21:51:54.125Z,100.00
2022-11-18T21:54:22.229Z,100.00
2022-11-18T21:56:50.760Z,100.00
2022-11-18T21:59:19.250Z,100.00
2022-11-18T22:01:47.612Z,100.00
2022-11-18T22:04:35.805Z,100.00
2022-11-18T22:07:05.454Z,100.00
2022-11-18T22:09:36.745Z,100.00
2022-11-18T22:12:06.814Z,100.00
2022-11-18T22:14:34.963Z,100.00
2022-11-18T22:17:04.390Z,100.00
2022-11-18T22:19:32.869Z,100.00
2022-11-18T22:22:01.106Z,100.00
2022-11-18T22:24:29.438Z,100.00
2022-11-18T22:26:57.597Z,100.00
2022-11-18T22:29:26.385Z,100.00
2022-11-18T22:31:54.532Z,100.00
2022-11-18T22:34:22.694Z,100.00
2022-11-18T22:36:50.805Z,100.00
2022-11-18T22:39:19.648Z,100.00
2022-11-18T22:42:06.788Z,100.00
2022-11-18T22:44:35.217Z,100.00
2022-11-18T22:47:03.688Z,100.00
2022-11-18T22:49:31.866Z,100.00
2022-11-18T22:52:00.669Z,100.00
2022-11-18T22:54:38.940Z,100.00
2022-11-18T22:57:08.962Z,100.00
2022-11-18T22:59:37.523Z,100.00
2022-11-18T23:02:05.871Z,100.00
2022-11-18T23:04:35.254Z,100.00
2022-11-18T23:07:03.587Z,100.00
2022-11-18T23:09:31.932Z,100.00
2022-11-18T23:12:18.769Z,100.00
2022-11-18T23:14:47.223Z,100.00
2022-11-18T23:17:16.148Z,100.00
2022-11-18T23:19:44.387Z,100.00
2022-11-18T23:22:13.256Z,100.00
2022-11-18T23:24:41.686Z,100.00
2022-11-18T23:27:10.056Z,100.00
2022-11-18T23:29:38.751Z,100.00
2022-11-18T23:32:06.895Z,100.00
2022-11-18T23:34:35.088Z,100.00
2022-11-18T23:37:03.218Z,100.00
2022-11-18T23:39:31.476Z,100.00
2022-11-18T23:41:59.540Z,99.97
2022-11-18T23:44:45.931Z,99.51
2022-11-18T23:47:14.361Z,99.10
2022-11-18T23:49:42.505Z,99.29
2022-11-18T23:52:10.886Z,99.53
2022-11-18T23:54:39.272Z,99.47
2022-11-18T23:57:08.032Z,99.81
2022-11-18T23:59:36.136Z,99.98
